Time;durP1;ratioP1;P1;durP2;ratioP2;P2;SDS_P1;SDS_P2;PMS_P1;PMS_P2;Temp;Humidity;BMP_temperature;BMP_pressure;BME280_temperature;BME280_humidity;BME280_pressure;Samples;Min_cycle;Max_cycle;Signal;HPM_P1;HPM_P2
2023/03/21 00:00:12;;;;;;;168.52;39.80;;;;;;;;;;5048206;28;20124;-62
2023/03/21 00:02:38;;;;;;;181.80;41.30;;;;;;;;;;5024824;28;20537;-62
2023/03/21 00:05:04;;;;;;;173.52;43.78;;;;;;;;;;5043757;28;20039;-62
2023/03/21 00:07:30;;;;;;;192.95;43.75;;;;;;;;;;5042586;28;20055;-62
2023/03/21 00:09:56;;;;;;;169.60;41.70;;;;;;;;;;5042741;28;20510;-62
2023/03/21 00:12:22;;;;;;;193.90;43.75;;;;;;;;;;5046515;28;20048;-61
2023/03/21 00:14:49;;;;;;;210.02;47.47;;;;;;;;;;5045234;28;20033;-62
2023/03/21 00:17:15;;;;;;;173.05;38.25;;;9.10;99.90;;;;;;5039591;28;20037;-62
2023/03/21 00:19:43;;;;;;;198.30;43.92;;;;;;;;;;5028589;28;20044;-62
2023/03/21 00:22:09;;;;;;;183.07;43.75;;;;;;;;;;5047140;28;20032;-62
2023/03/21 00:24:35;;;;;;;158.23;37.28;;;;;;;;;;5047324;28;20112;-62
2023/03/21 00:27:01;;;;;;;142.40;37.72;;;;;;;;;;5017260;28;20045;-62
2023/03/21 00:29:28;;;;;;;140.50;34.65;;;;;;;;;;5030840;28;20052;-62
2023/03/21 00:31:54;;;;;;;122.53;34.30;;;;;;;;;;5022584;28;20124;-62
2023/03/21 00:34:20;;;;;;;117.25;33.97;;;;;;;;;;5048402;28;20541;-62
2023/03/21 00:36:46;;;;;;;97.78;32.30;;;;;;;;;;5032147;28;20045;-62
2023/03/21 00:39:13;;;;;;;94.30;29.30;;;;;;;;;;5023194;28;20116;-62
2023/03/21 00:41:39;;;;;;;87.30;28.38;;;;;;;;;;5045016;28;20047;-62
2023/03/21 00:44:05;;;;;;;89.88;27.55;;;;;;;;;;5031960;28;20038;-62
2023/03/21 00:46:31;;;;;;;76.68;25.17;;;;;;;;;;5021093;28;20045;-62
2023/03/21 00:48:57;;;;;;;77.28;24.17;;;;;;;;;;5012143;28;20041;-62
2023/03/21 00:51:26;;;;;;;70.45;25.08;;;9.20;99.90;;;;;;5034984;28;20041;-61
2023/03/21 00:53:56;;;;;;;78.25;24.63;;;9.60;99.90;;;;;;5049732;28;20079;-62
2023/03/21 00:56:22;;;;;;;93.95;31.30;;;8.90;99.90;;;;;;5042252;28;20037;-62
2023/03/21 00:58:48;;;;;;;119.15;35.65;;;8.80;99.90;;;;;;5047137;28;20513;-61
2023/03/21 01:01:14;;;;;;;132.27;38.58;;;;;;;;;;5032163;28;20033;-62
2023/03/21 01:03:46;;;;;;;121.65;34.17;;;;;;;;;;5026583;28;20033;-62
2023/03/21 01:06:13;;;;;;;165.85;45.25;;;;;;;;;;5026600;28;20044;-62
2023/03/21 01:08:41;;;;;;;159.20;43.25;;;;;;;;;;5016980;28;20116;-62
2023/03/21 01:11:10;;;;;;;171.25;48.17;;;8.90;99.90;;;;;;5041270;28;20164;-62
2023/03/21 01:13:36;;;;;;;196.52;52.47;;;;;;;;;;5017316;28;20565;-62
2023/03/21 01:16:04;;;;;;;165.15;44.53;;;;;;;;;;5036515;28;20051;-62
2023/03/21 01:18:30;;;;;;;180.27;51.72;;;;;;;;;;5041436;28;20502;-62
2023/03/21 01:20:58;;;;;;;203.05;56.45;;;8.90;99.90;;;;;;5048796;28;20065;-62
2023/03/21 01:23:24;;;;;;;231.88;57.03;;;;;;;;;;5015690;28;20041;-62
2023/03/21 01:25:52;;;;;;;222.85;56.50;;;8.90;99.90;;;;;;5049978;28;20095;-62
2023/03/21 01:28:19;;;;;;;222.25;63.05;;;;;;;;;;5031419;28;20123;-62
2023/03/21 01:30:49;;;;;;;202.25;55.92;;;;;;;;;;5045887;28;20030;-62
2023/03/21 01:33:15;;;;;;;246.80;63.25;;;;;;;;;;5035784;28;20124;-62
2023/03/21 01:35:41;;;;;;;211.18;58.47;;;;;;;;;;5039428;28;20470;-62
2023/03/21 01:38:08;;;;;;;206.13;58.90;;;;;;;;;;5025129;28;20407;-62
2023/03/21 01:40:35;;;;;;;194.43;53.38;;;;;;;;;;5030963;28;20043;-62
2023/03/21 01:43:01;;;;;;;180.95;53.53;;;;;;;;;;5048731;28;20029;-62
2023/03/21 01:45:46;;;;;;;186.23;54.97;;;;;;;;;;5034944;28;20060;-62
2023/03/21 01:48:12;;;;;;;183.00;54.05;;;;;;;;;;5038437;28;20064;-62
2023/03/21 01:50:40;;;;;;;200.07;55.75;;;;;;;;;;5027667;28;20089;-62
2023/03/21 01:53:06;;;;;;;145.38;44.17;;;;;;;;;;5044949;28;20091;-62
2023/03/21 01:55:32;;;;;;;169.23;50.80;;;;;;;;;;5043856;28;20127;-62
2023/03/21 01:58:02;;;;;;;152.70;48.17;;;9.20;99.90;;;;;;5037550;28;20491;-62
2023/03/21 02:00:28;;;;;;;126.20;42.08;;;9.00;99.90;;;;;;5029170;28;20040;-62
2023/03/21 02:02:56;;;;;;;122.18;42.53;;;;;;;;;;5048815;28;20394;-62
2023/03/21 02:05:51;;;;;;;132.27;45.13;;;9.20;99.90;;;;;;5023229;28;20045;-62
2023/03/21 02:08:17;;;;;;;118.63;38.50;;;;;;;;;;5030511;28;20041;-61
2023/03/21 02:10:45;;;;;;;139.35;43.28;;;;;;;;;;5018814;28;20041;-61
2023/03/21 02:13:11;;;;;;;135.57;43.35;;;;;;;;;;5045343;28;20037;-61
2023/03/21 02:15:40;;;;;;;114.00;34.90;;;9.00;99.90;;;;;;5036697;28;20220;-61
2023/03/21 02:18:46;;;;;;;140.68;43.00;;;8.70;99.90;;;;;;5034985;28;20037;-62
2023/03/21 02:21:21;;;;;;;129.25;41.35;;;;;;;;;;5008907;28;20046;-61
2023/03/21 02:24:00;;;;;;;134.95;44.10;;;;;;;;;;5030313;28;20167;-62
2023/03/21 02:26:26;;;;;;;130.02;42.53;;;;;;;;;;5043135;28;20064;-62
2023/03/21 02:29:20;;;;;;;132.90;43.67;;;9.30;99.90;;;;;;5034880;28;20163;-62
2023/03/21 02:32:14;;;;;;;138.30;47.45;;;9.50;99.90;;;;;;5028147;28;20529;-62
2023/03/21 02:35:03;;;;;;;137.65;42.72;;;9.10;99.90;;;;;;5047142;28;20479;-61
2023/03/21 02:37:33;;;;;;;136.77;41.78;;;;;;;;;;5052152;28;20033;-61
2023/03/21 02:40:08;;;;;;;124.03;40.47;;;;;;;;;;5045969;28;20029;-62
2023/03/21 02:42:41;;;;;;;93.63;30.42;;;;;;;;;;5022393;28;20514;-61
2023/03/21 02:45:10;;;;;;;115.65;35.53;;;9.10;99.90;;;;;;5044732;28;20045;-62
2023/03/21 02:47:46;;;;;;;96.57;32.80;;;;;;;;;;5034864;28;20406;-62
2023/03/21 02:50:25;;;;;;;100.88;34.47;;;9.00;99.90;;;;;;5027928;28;20495;-62
2023/03/21 02:52:53;;;;;;;92.30;32.08;;;8.80;99.90;;;;;;5048515;28;20131;-61
2023/03/21 02:55:25;;;;;;;106.90;34.50;;;;;;;;;;5040744;28;20041;-62
2023/03/21 02:57:52;;;;;;;96.47;31.80;;;;;;;;;;5029680;28;20049;-62
2023/03/21 03:00:20;;;;;;;84.90;30.58;;;;;;;;;;5042540;28;20044;-62
2023/03/21 03:02:49;;;;;;;84.47;26.52;;;;;;;;;;5041828;28;20568;-61
2023/03/21 03:05:21;;;;;;;87.65;30.08;;;;;;;;;;5027708;28;20041;-62
2023/03/21 03:07:47;;;;;;;79.70;29.75;;;;;;;;;;5044272;28;20033;-61
2023/03/21 03:10:25;;;;;;;79.18;26.25;;;;;;;;;;5047773;28;20048;-62
2023/03/21 03:12:57;;;;;;;78.03;26.23;;;;;;;;;;5040366;28;20485;-62
2023/03/21 03:15:44;;;;;;;67.35;24.80;;;;;;;;;;5013377;28;20047;-62
2023/03/21 03:18:26;;;;;;;68.65;24.38;;;8.60;99.90;;;;;;5042413;28;20561;-62
2023/03/21 03:21:02;;;;;;;70.85;23.98;;;;;;;;;;5036991;28;20580;-61
2023/03/21 03:23:40;;;;;;;82.15;27.25;;;;;;;;;;5037422;28;20051;-62
2023/03/21 03:26:32;;;;;;;73.53;25.98;;;9.00;99.90;;;;;;5035868;28;20394;-62
2023/03/21 03:29:05;;;;;;;71.25;24.60;;;;;;;;;;5041564;28;20036;-62
2023/03/21 03:31:45;;;;;;;84.50;26.92;;;8.90;99.90;;;;;;5041181;28;20044;-61
2023/03/21 03:34:16;;;;;;;82.13;26.38;;;;;;;;;;5039750;28;20033;-62
2023/03/21 03:36:46;;;;;;;89.63;28.20;;;;;;;;;;5025504;28;20045;-62
2023/03/21 03:39:14;;;;;;;91.80;27.08;;;;;;;;;;5048801;28;20052;-62
2023/03/21 03:41:52;;;;;;;103.00;30.48;;;;;;;;;;5023122;28;20171;-62
2023/03/21 03:44:20;;;;;;;108.20;31.80;;;8.90;99.90;;;;;;5040750;28;20041;-62
2023/03/21 03:46:55;;;;;;;112.70;31.55;;;9.00;99.90;;;;;;5040754;28;20115;-62
2023/03/21 03:49:24;;;;;;;105.15;31.10;;;;;;;;;;5042645;28;20037;-61
2023/03/21 03:52:02;;;;;;;113.80;32.38;;;;;;;;;;5040118;28;20391;-62
2023/03/21 03:54:34;;;;;;;91.13;28.65;;;;;;;;;;5047807;28;20076;-62
2023/03/21 03:57:00;;;;;;;123.55;33.50;;;;;;;;;;5039594;28;20034;-62
2023/03/21 03:59:26;;;;;;;89.40;27.98;;;9.10;99.90;;;;;;5044463;28;20503;-62
2023/03/21 04:01:52;;;;;;;99.35;30.42;;;;;;;;;;5045672;28;20091;-62
2023/03/21 04:04:21;;;;;;;95.45;30.33;;;;;;;;;;5041092;28;20052;-62
2023/03/21 04:06:50;;;;;;;97.38;25.88;;;;;;;;;;5043693;28;20049;-62
2023/03/21 04:09:17;;;;;;;111.05;29.83;;;;;;;;;;5049198;28;20053;-62
2023/03/21 04:11:42;;;;;;;109.95;30.70;;;9.00;99.90;;;;;;5031844;28;20033;-62
2023/03/21 04:14:09;;;;;;;104.40;32.65;;;;;;;;;;5051477;28;20541;-62
2023/03/21 04:16:35;;;;;;;97.15;27.45;;;;;;;;;;5048046;28;20410;-62
2023/03/21 04:19:01;;;;;;;128.30;33.28;;;;;;;;;;5042134;28;20189;-62
2023/03/21 04:21:27;;;;;;;107.30;30.98;;;;;;;;;;5039226;28;20075;-62
2023/03/21 04:23:53;;;;;;;117.20;32.35;;;9.10;99.90;;;;;;5033765;28;20033;-62
2023/03/21 04:26:21;;;;;;;119.22;31.45;;;8.30;99.90;;;;;;5017258;28;20398;-62
2023/03/21 04:28:47;;;;;;;130.05;35.38;;;;;;;;;;5039221;28;20037;-62
2023/03/21 04:31:14;;;;;;;124.35;32.95;;;;;;;;;;5023515;28;20120;-62
2023/03/21 04:33:40;;;;;;;129.57;34.38;;;9.10;99.90;;;;;;5039018;28;20126;-62
2023/03/21 04:36:08;;;;;;;121.88;33.47;;;8.60;99.90;;;;;;5032667;28;20499;-62
2023/03/21 04:38:34;;;;;;;99.55;29.88;;;;;;;;;;5024016;28;20641;-62
2023/03/21 04:41:01;;;;;;;110.07;33.03;;;;;;;;;;5015152;28;20112;-62
2023/03/21 04:43:27;;;;;;;103.18;29.60;;;9.10;99.90;;;;;;5034546;28;20061;-62
2023/03/21 04:45:53;;;;;;;88.30;26.75;;;9.10;99.90;;;;;;5049476;28;20397;-62
2023/03/21 04:48:19;;;;;;;82.78;27.00;;;9.00;99.90;;;;;;5016017;28;20116;-62
2023/03/21 04:50:45;;;;;;;75.30;25.58;;;9.40;99.90;;;;;;5025861;28;20402;-62
2023/03/21 04:53:11;;;;;;;72.38;25.63;;;8.80;99.90;;;;;;5039360;28;20405;-62
2023/03/21 04:55:37;;;;;;;77.63;26.25;;;9.00;99.90;;;;;;5037153;28;20042;-62
2023/03/21 04:58:04;;;;;;;70.13;25.20;;;;;;;;;;5042586;28;20039;-62
2023/03/21 05:00:30;;;;;;;70.07;25.23;;;;;;;;;;5030992;28;20045;-62
2023/03/21 05:02:57;;;;;;;55.60;23.27;;;;;;;;;;5043241;28;20045;-62
2023/03/21 05:05:23;;;;;;;72.35;25.15;;;;;;;;;;5046907;28;20041;-62
2023/03/21 05:07:49;;;;;;;66.75;22.52;;;;;;;;;;5050130;28;20029;-62
2023/03/21 05:10:16;;;;;;;61.40;22.40;;;;;;;;;;5049265;28;20041;-62
2023/03/21 05:12:42;;;;;;;74.95;25.27;;;;;;;;;;5043460;28;20054;-62
2023/03/21 05:15:08;;;;;;;57.53;21.27;;;8.50;99.90;;;;;;5022501;28;20133;-63
2023/03/21 05:17:35;;;;;;;60.35;22.85;;;;;;;;;;5046538;28;20037;-63
2023/03/21 05:20:03;;;;;;;58.65;23.65;;;;;;;;;;5035680;28;20398;-63
2023/03/21 05:22:39;;;;;;;54.58;22.13;;;9.10;99.90;;;;;;5023517;28;20059;-62
2023/03/21 05:25:07;;;;;;;64.95;23.02;;;9.10;99.90;;;;;;5046379;28;20037;-63
2023/03/21 05:27:33;;;;;;;59.67;22.58;;;9.00;99.90;;;;;;5030867;28;20045;-63
2023/03/21 05:30:05;;;;;;;53.10;21.80;;;9.80;99.90;;;;;;5036065;28;20413;-63
2023/03/21 05:32:31;;;;;;;70.45;23.88;;;;;;;;;;5047325;28;20040;-63
2023/03/21 05:34:57;;;;;;;57.10;23.27;;;;;;;;;;5050205;28;20116;-63
2023/03/21 05:37:24;;;;;;;60.85;22.25;;;;;;;;;;5049083;28;20387;-63
2023/03/21 05:39:50;;;;;;;66.80;23.02;;;;;;;;;;5041304;28;20037;-63
2023/03/21 05:42:17;;;;;;;63.70;25.25;;;8.70;99.90;;;;;;5049020;28;20044;-63
2023/03/21 05:44:44;;;;;;;56.78;22.98;;;;;;;;;;5015267;28;20044;-63
2023/03/21 05:47:13;;;;;;;55.78;23.27;;;9.20;99.90;;;;;;5027064;28;20037;-62
2023/03/21 05:49:39;;;;;;;59.47;23.17;;;;;;;;;;5046734;28;20029;-62
2023/03/21 05:52:05;;;;;;;66.75;23.77;;;;;;;;;;5037546;28;20111;-62
2023/03/21 05:54:31;;;;;;;57.13;22.70;;;;;;;;;;5009280;28;20036;-62
2023/03/21 05:56:57;;;;;;;55.95;21.05;;;9.20;99.90;;;;;;5040427;28;20056;-62
2023/03/21 05:59:23;;;;;;;56.83;22.58;;;;;;;;;;5028593;28;20486;-62
2023/03/21 06:01:49;;;;;;;61.28;22.98;;;;;;;;;;5044244;28;20106;-62
2023/03/21 06:04:15;;;;;;;59.13;22.08;;;;;;;;;;5042223;28;20044;-62
2023/03/21 06:06:41;;;;;;;48.70;20.83;;;;;;;;;;5047674;28;20544;-62
2023/03/21 06:09:07;;;;;;;58.55;23.77;;;;;;;;;;5041288;28;20629;-62
2023/03/21 06:11:37;;;;;;;51.08;20.15;;;;;;;;;;5048069;28;20041;-62
2023/03/21 06:14:03;;;;;;;54.60;21.00;;;;;;;;;;5034458;28;20035;-62
2023/03/21 06:16:29;;;;;;;46.97;18.45;;;9.20;99.90;;;;;;5041526;28;20041;-63
2023/03/21 06:18:55;;;;;;;48.78;18.20;;;9.30;99.90;;;;;;5038128;28;20044;-62
2023/03/21 06:21:21;;;;;;;54.50;21.33;;;;;;;;;;5044934;28;20080;-62
2023/03/21 06:23:50;;;;;;;45.15;19.13;;;;;;;;;;5043523;28;20060;-62
2023/03/21 06:26:21;;;;;;;49.35;19.65;;;;;;;;;;5038616;28;20048;-62
2023/03/21 06:28:47;;;;;;;42.35;19.33;;;;;;;;;;5025645;28;20587;-63
2023/03/21 06:31:13;;;;;;;56.13;20.60;;;9.10;99.90;;;;;;5038861;28;20487;-62
2023/03/21 06:33:39;;;;;;;49.75;20.10;;;;;;;;;;5021598;28;20044;-63
2023/03/21 06:36:05;;;;;;;46.60;19.10;;;;;;;;;;5044455;28;20402;-62
2023/03/21 06:38:31;;;;;;;47.15;18.77;;;;;;;;;;5045344;28;20041;-62
2023/03/21 06:40:57;;;;;;;44.95;17.95;;;;;;;;;;5040884;28;20226;-62
2023/03/21 06:43:23;;;;;;;43.45;18.65;;;;;;;;;;5049081;28;20044;-62
2023/03/21 06:45:49;;;;;;;46.50;19.60;;;;;;;;;;5034273;28;20052;-62
2023/03/21 06:48:15;;;;;;;44.63;18.35;;;;;;;;;;5046395;28;20067;-62
2023/03/21 06:50:42;;;;;;;50.60;19.77;;;;;;;;;;5042734;28;20120;-62
2023/03/21 06:53:08;;;;;;;47.47;20.10;;;;;;;;;;5042533;28;20528;-63
2023/03/21 06:55:34;;;;;;;39.72;18.00;;;;;;;;;;5045317;28;20073;-62
2023/03/21 06:58:00;;;;;;;44.95;17.98;;;;;;;;;;5035879;28;20383;-63
2023/03/21 07:00:26;;;;;;;54.45;19.75;;;9.20;99.90;;;;;;5017315;28;20047;-63
2023/03/21 07:02:52;;;;;;;42.05;17.98;;;;;;;;;;5028955;28;20041;-63
2023/03/21 07:05:18;;;;;;;46.55;19.05;;;;;;;;;;5040778;28;20048;-62
2023/03/21 07:07:45;;;;;;;40.28;17.05;;;;;;;;;;5041871;28;20037;-63
2023/03/21 07:10:11;;;;;;;46.15;19.35;;;;;;;;;;5043203;28;20048;-62
2023/03/21 07:12:37;;;;;;;45.92;19.05;;;9.30;99.90;;;;;;5025209;28;20044;-63
2023/03/21 07:15:03;;;;;;;47.58;18.77;;;;;;;;;;5046842;28;20036;-63
2023/03/21 07:17:29;;;;;;;40.63;18.17;;;;;;;;;;5040876;28;20090;-63
2023/03/21 07:19:55;;;;;;;48.03;19.48;;;;;;;;;;5042012;28;20487;-63
2023/03/21 07:22:21;;;;;;;45.88;19.40;;;;;;;;;;5044988;28;20063;-63
2023/03/21 07:24:47;;;;;;;51.70;21.30;;;;;;;;;;5052424;28;20655;-63
2023/03/21 07:27:17;;;;;;;47.80;19.20;;;9.40;99.90;;;;;;5037254;28;20033;-63
2023/03/21 07:29:45;;;;;;;44.58;20.60;;;;;;;;;;5044600;28;20048;-63
2023/03/21 07:32:11;;;;;;;40.08;18.90;;;;;;;;;;5031280;28;20053;-63
2023/03/21 07:34:37;;;;;;;57.95;21.67;;;;;;;;;;5041276;28;20091;-63
2023/03/21 07:37:05;;;;;;;42.63;19.05;;;;;;;;;;5048623;28;20041;-63
2023/03/21 07:39:33;;;;;;;50.20;20.38;;;;;;;;;;5025434;28;20455;-63
2023/03/21 07:41:59;;;;;;;48.67;19.60;;;;;;;;;;5022661;28;20041;-64
2023/03/21 07:44:26;;;;;;;39.63;18.85;;;9.00;99.90;;;;;;5044242;28;20098;-64
2023/03/21 07:46:51;;;;;;;47.13;21.17;;;9.30;99.90;;;;;;5049337;28;20048;-64
2023/03/21 07:49:17;;;;;;;51.47;21.15;;;;;;;;;;5051295;28;20037;-63
2023/03/21 07:51:44;;;;;;;45.50;19.58;;;;;;;;;;5044564;28;20099;-64
2023/03/21 07:54:10;;;;;;;42.13;19.58;;;;;;;;;;5050303;28;20464;-64
2023/03/21 07:56:36;;;;;;;44.22;19.88;;;;;;;;;;5038227;28;20037;-63
2023/03/21 07:59:04;;;;;;;48.42;19.73;;;;;;;;;;5048283;28;20037;-63
2023/03/21 08:01:31;;;;;;;36.42;18.33;;;;;;;;;;5051279;28;20573;-62
2023/03/21 08:03:56;;;;;;;44.83;19.75;;;9.30;99.90;;;;;;5041152;28;20037;-63
2023/03/21 08:06:26;;;;;;;44.58;21.02;;;;;;;;;;5043996;28;20029;-63
2023/03/21 08:08:52;;;;;;;43.03;19.73;;;;;;;;;;5050170;28;20048;-63
2023/03/21 08:11:20;;;;;;;44.60;19.35;;;;;;;;;;5047989;28;20040;-63
2023/03/21 08:13:47;;;;;;;39.45;17.77;;;;;;;;;;5029048;28;20045;-62
2023/03/21 08:16:13;;;;;;;40.70;18.02;;;;;;;;;;5022652;28;20056;-63
2023/03/21 08:18:39;;;;;;;39.90;19.92;;;;;;;;;;5036323;28;20116;-62
2023/03/21 08:21:05;;;;;;;35.55;18.83;;;;;;;;;;5040001;28;20193;-63
2023/03/21 08:23:31;;;;;;;34.60;18.63;;;;;;;;;;5049565;28;20041;-63
2023/03/21 08:25:57;;;;;;;38.85;18.58;;;;;;;;;;5032998;28;20091;-63
2023/03/21 08:28:23;;;;;;;43.72;20.52;;;;;;;;;;5033253;28;20045;-63
2023/03/21 08:30:49;;;;;;;36.67;18.65;;;;;;;;;;5048310;28;20045;-63
2023/03/21 08:33:17;;;;;;;40.45;20.80;;;;;;;;;;5045808;28;20045;-63
2023/03/21 08:35:44;;;;;;;36.65;19.58;;;;;;;;;;5044000;28;20061;-63
2023/03/21 08:38:10;;;;;;;41.72;21.35;;;;;;;;;;5044434;28;20137;-62
2023/03/21 08:40:36;;;;;;;38.70;22.85;;;;;;;;;;5032236;28;20044;-62
2023/03/21 08:43:02;;;;;;;42.33;21.90;;;;;;;;;;5025372;28;20053;-63
2023/03/21 08:45:28;;;;;;;40.00;21.30;;;9.40;99.90;;;;;;5046078;28;20168;-63
2023/03/21 08:47:55;;;;;;;37.03;21.95;;;;;;;;;;5005573;28;20557;-63
2023/03/21 08:50:22;;;;;;;43.30;22.75;;;9.70;99.90;;;;;;5032065;28;20049;-63
2023/03/21 08:52:48;;;;;;;42.10;24.27;;;9.40;99.90;;;;;;5039477;28;20045;-62
2023/03/21 08:55:15;;;;;;;44.92;25.88;;;;;;;;;;5044928;28;20032;-63
2023/03/21 08:57:42;;;;;;;47.95;26.42;;;;;;;;;;5045394;28;20040;-62
2023/03/21 09:00:15;;;;;;;53.50;28.13;;;;;;;;;;5041249;28;20038;-62
2023/03/21 09:02:42;;;;;;;55.35;31.38;;;;;;;;;;5050457;28;20099;-62
2023/03/21 09:05:10;;;;;;;58.17;31.15;;;;;;;;;;5041491;28;20033;-62
2023/03/21 09:07:39;;;;;;;55.90;29.90;;;9.50;99.90;;;;;;5046433;28;20045;-62
2023/03/21 09:10:06;;;;;;;58.80;29.75;;;;;;;;;;5020555;28;20077;-62
2023/03/21 09:12:32;;;;;;;53.22;29.58;;;;;;;;;;5045305;28;20053;-62
2023/03/21 09:15:01;;;;;;;51.70;28.58;;;;;;;;;;5052117;28;20502;-62
2023/03/21 09:17:27;;;;;;;54.17;28.42;;;;;;;;;;5029113;28;20521;-62
2023/03/21 09:19:53;;;;;;;47.13;26.38;;;;;;;;;;5047473;28;20048;-62
2023/03/21 09:22:20;;;;;;;53.75;28.10;;;;;;;;;;5045548;28;20041;-62
2023/03/21 09:24:48;;;;;;;46.38;26.73;;;;;;;;;;5026217;28;20122;-62
2023/03/21 09:27:16;;;;;;;53.10;26.73;;;;;;;;;;5038918;28;20371;-62
2023/03/21 09:29:43;;;;;;;44.42;24.05;;;;;;;;;;5045778;28;20044;-62
2023/03/21 09:32:10;;;;;;;51.15;24.33;;;;;;;;;;5026250;28;20049;-62
2023/03/21 09:34:39;;;;;;;38.50;23.13;;;9.30;99.90;;;;;;5044293;28;20041;-62
2023/03/21 09:37:10;;;;;;;50.55;23.58;;;;;;;;;;5046063;28;20072;-62
2023/03/21 09:39:36;;;;;;;37.97;20.60;;;;;;;;;;5042101;28;20166;-63
2023/03/21 09:42:21;;;;;;;42.00;19.77;;;;;;;;;;5047244;28;20033;-63
2023/03/21 09:45:11;;;;;;;41.33;21.02;;;9.40;99.90;;;;;;5040720;28;20406;-63
2023/03/21 09:47:48;;;;;;;34.25;19.65;;;;;;;;;;5049700;28;20475;-63
2023/03/21 09:50:19;;;;;;;31.52;17.63;;;;;;;;;;5042281;28;20479;-62
2023/03/21 09:53:04;;;;;;;36.50;17.42;;;9.40;99.90;;;;;;5046267;28;20036;-62
2023/03/21 09:55:30;;;;;;;;;;;10.00;99.90;;;;;;5030366;28;20033;-62
2023/03/21 09:57:59;;;;;;;32.35;18.88;;;9.40;99.90;;;;;;5051211;28;20440;-62
2023/03/21 10:00:28;;;;;;;39.45;18.65;;;;;;;;;;5049047;28;20132;-62
2023/03/21 10:02:58;;;;;;;29.50;16.23;;;9.00;99.90;;;;;;5048483;28;20051;-62
2023/03/21 10:05:27;;;;;;;27.88;16.10;;;;;;;;;;5043374;28;20032;-62
2023/03/21 10:08:26;;;;;;;32.53;15.52;;;9.30;99.90;;;;;;5018274;28;20207;-62
2023/03/21 10:10:55;;;;;;;25.27;15.65;;;;;;;;;;5042668;28;20047;-62
2023/03/21 10:13:26;;;;;;;25.42;13.52;;;;;;;;;;5040885;28;20041;-62
2023/03/21 10:16:12;;;;;;;35.15;16.80;;;9.80;99.90;;;;;;5039284;28;20407;-62
2023/03/21 10:18:40;;;;;;;25.17;14.27;;;;;;;;;;5048284;28;20029;-62
2023/03/21 10:21:07;;;;;;;28.55;16.20;;;;;;;;;;5041137;28;20029;-62
2023/03/21 10:23:34;;;;;;;26.15;14.73;;;;;;;;;;5045207;28;20032;-61
2023/03/21 10:26:06;;;;;;;28.00;14.75;;;;;;;;;;5057403;28;20402;-61
2023/03/21 10:28:33;;;;;;;24.75;15.13;;;;;;;;;;5022656;28;20398;-62
2023/03/21 10:31:03;;;;;;;32.03;17.65;;;9.70;99.90;;;;;;5048076;28;20033;-61
2023/03/21 10:33:33;;;;;;;28.15;15.75;;;;;;;;;;5045742;28;20494;-62
2023/03/21 10:36:00;;;;;;;29.75;16.02;;;;;;;;;;5027410;28;20087;-62
2023/03/21 10:38:27;;;;;;;24.92;15.15;;;;;;;;;;5049122;28;20037;-62
2023/03/21 10:40:53;;;;;;;30.92;14.73;;;;;;;;;;5046298;28;20040;-62
2023/03/21 10:43:26;;;;;;;25.90;13.98;;;;;;;;;;5029400;28;20043;-62
2023/03/21 10:45:53;;;;;;;30.27;12.98;;;10.80;1.00;;;;;;5042339;28;20028;-62
2023/03/21 10:48:19;;;;;;;24.75;13.10;;;10.40;99.90;;;;;;5041524;28;20034;-62
2023/03/21 10:50:48;;;;;;;23.17;11.82;;;;;;;;;;5040552;28;20155;-62
2023/03/21 10:53:17;;;;;;;19.50;12.77;;;;;;;;;;5052940;28;20383;-62
2023/03/21 10:55:43;;;;;;;22.73;12.75;;;;;;;;;;5050339;28;20049;-61
2023/03/21 10:58:17;;;;;;;20.00;11.25;;;;;;;;;;5044937;28;20033;-61
2023/03/21 11:00:45;;;;;;;17.88;9.73;;;;;;;;;;5033987;28;20516;-62
2023/03/21 11:03:23;;;;;;;17.70;10.82;;;10.90;99.90;;;;;;5046726;28;20574;-62
2023/03/21 11:05:53;;;;;;;18.63;10.27;;;;;;;;;;5021838;28;20041;-61
2023/03/21 11:08:19;;;;;;;19.35;11.88;;;;;;;;;;5029915;28;20052;-61
2023/03/21 11:10:51;;;;;;;19.95;11.55;;;;;;;;;;5031464;28;20040;-62
2023/03/21 11:13:19;;;;;;;20.83;11.40;;;;;;;;;;5047756;28;20045;-62
2023/03/21 11:15:57;;;;;;;21.88;12.10;;;10.60;44.30;;;;;;5055104;28;20044;-61
2023/03/21 11:18:30;;;;;;;28.55;14.85;;;;;;;;;;5030807;28;20025;-62
2023/03/21 11:20:58;;;;;;;20.55;10.43;;;;;;;;;;5015985;28;20494;-61
2023/03/21 11:23:31;;;;;;;16.77;10.18;;;;;;;;;;5047299;28;20033;-61
2023/03/21 11:25:59;;;;;;;25.50;12.45;;;;;;;;;;5013790;28;20508;-61
2023/03/21 11:28:32;;;;;;;20.08;11.10;;;10.50;99.90;;;;;;5041877;28;20068;-61
2023/03/21 11:31:00;;;;;;;20.48;13.68;;;10.60;99.90;;;;;;5045123;28;20088;-61
2023/03/21 11:33:27;;;;;;;19.65;11.45;;;;;;;;;;5040125;28;20035;-61
2023/03/21 11:35:59;;;;;;;20.45;11.00;;;;;;;;;;5050522;28;20071;-61
2023/03/21 11:38:30;;;;;;;17.05;10.70;;;10.20;1.00;;;;;;5020747;28;20088;-61
2023/03/21 11:40:58;;;;;;;21.30;10.60;;;;;;;;;;5050970;28;20037;-62
2023/03/21 11:43:37;;;;;;;21.63;12.15;;;11.20;98.50;;;;;;5051123;28;20037;-61
2023/03/21 11:46:03;;;;;;;23.58;11.93;;;;;;;;;;5027919;28;20041;-61
2023/03/21 11:48:29;;;;;;;19.85;11.93;;;;;;;;;;5050329;28;20037;-61
2023/03/21 11:51:00;;;;;;;23.52;12.43;;;;;;;;;;5046841;28;20037;-61
2023/03/21 11:53:41;;;;;;;18.80;11.38;;;;;;;;;;5043467;28;20116;-61
2023/03/21 11:56:33;;;;;;;17.95;10.85;;;;;;;;;;5050281;28;21288;-61
2023/03/21 11:59:02;;;;;;;18.33;11.45;;;;;;;;;;5017582;28;20049;-61
2023/03/21 12:01:43;;;;;;;23.10;11.98;;;10.50;99.90;;;;;;5016116;28;20069;-61
2023/03/21 12:04:19;;;;;;;21.80;10.82;;;;;;;;;;5038767;28;20043;-61
2023/03/21 12:07:26;;;;;;;18.80;11.10;;;10.20;19.20;;;;;;5039635;28;20040;-61
2023/03/21 12:10:07;;;;;;;22.92;11.35;;;10.40;1.00;;;;;;5046475;28;20045;-61
2023/03/21 12:13:00;;;;;;;20.83;11.73;;;10.70;99.90;;;;;;5042515;28;20029;-61
2023/03/21 12:15:35;;;;;;;21.58;11.88;;;10.90;1.00;;;;;;5043387;28;20037;-61
2023/03/21 12:18:20;;;;;;;22.33;11.00;;;;;;;;;;5049054;28;20426;-61
2023/03/21 12:20:52;;;;;;;23.88;11.90;;;;;;;;;;5057760;28;20044;-61
2023/03/21 12:23:18;;;;;;;19.83;11.38;;;;;;;;;;5024423;28;20085;-61
2023/03/21 12:25:49;;;;;;;22.38;11.98;;;;;;;;;;5057078;28;20068;-61
2023/03/21 12:28:18;;;;;;;16.25;9.48;;;;;;;;;;5039852;28;20041;-61
2023/03/21 12:31:08;;;;;;;21.55;11.95;;;11.50;99.90;;;;;;5032385;28;20064;-61
2023/03/21 12:33:48;;;;;;;19.13;10.77;;;11.60;99.90;;;;;;5043008;28;20047;-61
2023/03/21 12:36:16;;;;;;;25.60;13.75;;;;;;;;;;5039351;28;20052;-61
2023/03/21 12:38:53;;;;;;;19.50;12.82;;;;;;;;;;5047329;28;20044;-61
2023/03/21 12:41:27;;;;;;;18.95;12.25;;;;;;;;;;5050677;28;20072;-61
2023/03/21 12:43:53;;;;;;;;;;;;;;;;;;5050466;28;20029;-61
2023/03/21 12:46:38;;;;;;;20.42;11.95;;;;;;;;;;5059329;28;19916;-62
2023/03/21 12:49:21;;;;;;;17.80;11.20;;;11.70;1.00;;;;;;5046544;28;20397;-61
2023/03/21 12:51:48;;;;;;;21.27;11.90;;;;;;;;;;5049972;28;20502;-61
2023/03/21 12:54:27;;;;;;;18.65;12.02;;;11.50;39.80;;;;;;5047157;28;20047;-61
2023/03/21 12:56:56;;;;;;;18.42;11.65;;;;;;;;;;5049843;28;20494;-61
2023/03/21 12:59:46;;;;;;;19.38;12.10;;;;;;;;;;5048496;28;20112;-61
2023/03/21 13:02:37;;;;;;;17.98;10.65;;;11.40;99.90;;;;;;5042881;28;20370;-61
2023/03/21 13:05:19;;;;;;;19.45;11.13;;;;;;;;;;5039964;28;20037;-61
2023/03/21 13:07:47;;;;;;;17.83;11.02;;;;;;;;;;5038857;28;20038;-61
2023/03/21 13:10:15;;;;;;;19.80;11.57;;;;;;;;;;5018183;28;20043;-61
2023/03/21 13:13:03;;;;;;;19.13;12.77;;;12.30;99.90;;;;;;5047265;28;20253;-61
2023/03/21 13:15:31;;;;;;;16.48;11.98;;;;;;;;;;5037821;28;20044;-61
2023/03/21 13:18:15;;;;;;;21.92;11.60;;;11.80;99.90;;;;;;5049903;28;20395;-61
2023/03/21 13:20:56;;;;;;;19.35;12.20;;;11.00;99.90;;;;;;5045177;28;20116;-62
2023/03/21 13:23:24;;;;;;;28.88;12.52;;;12.00;99.90;;;;;;5045376;28;20498;-62
2023/03/21 13:25:53;;;;;;;18.55;12.80;;;11.10;99.90;;;;;;5049230;28;20502;-61
2023/03/21 13:28:19;;;;;;;20.60;12.23;;;;;;;;;;5049045;28;20517;-62
2023/03/21 13:30:47;;;;;;;17.58;11.75;;;;;;;;;;5040722;28;20044;-61
2023/03/21 13:33:15;;;;;;;19.63;12.57;;;;;;;;;;5040267;28;20522;-61
2023/03/21 13:35:43;;;;;;;18.90;8.98;;;;;;;;;;5040689;28;20041;-61
2023/03/21 13:38:13;;;;;;;20.27;12.95;;;;;;;;;;5039387;28;20033;-62
2023/03/21 13:41:08;;;;;;;17.92;11.63;;;12.20;38.60;;;;;;5043246;28;20079;-62
2023/03/21 13:43:42;;;;;;;17.83;10.23;;;;;;;;;;5034914;28;20065;-61
2023/03/21 13:46:33;;;;;;;14.88;9.05;;;;;;;;;;5013500;28;20275;-62
2023/03/21 13:48:59;;;;;;;19.00;9.80;;;;;;;;;;5044221;28;20041;-61
2023/03/21 13:51:28;;;;;;;20.25;10.95;;;12.00;1.00;;;;;;5044879;28;20396;-62
2023/03/21 13:54:15;;;;;;;20.02;12.02;;;;;;;;;;5038487;28;20080;-61
2023/03/21 13:56:46;;;;;;;16.17;10.75;;;;;;;;;;4984302;28;20084;-62
2023/03/21 13:59:39;;;;;;;21.15;10.95;;;12.80;1.00;;;;;;5042536;28;20036;-62